createdAt,value
2022-10-09T00:01:58.655Z,70.97
2022-10-09T00:04:29.957Z,71.06
2022-10-09T00:07:01.243Z,70.84
2022-10-09T00:09:32.493Z,70.37
2022-10-09T00:12:03.705Z,70.48
2022-10-09T00:14:35.293Z,70.87
2022-10-09T00:17:06.969Z,71.01
2022-10-09T00:19:38.239Z,71.15
2022-10-09T00:22:09.775Z,71.25
2022-10-09T00:24:41.628Z,71.47
2022-10-09T00:27:13.072Z,71.31
2022-10-09T00:29:44.227Z,70.93
2022-10-09T00:32:15.467Z,71.18
2022-10-09T00:34:46.966Z,70.97
2022-10-09T00:37:20.195Z,70.90
2022-10-09T00:39:51.453Z,70.94
2022-10-09T00:42:22.995Z,71.15
2022-10-09T00:45:00.294Z,71.41
2022-10-09T00:47:37.584Z,71.70
2022-10-09T00:50:15.491Z,72.05
2022-10-09T00:52:47.406Z,72.29
2022-10-09T00:55:19.213Z,72.68
2022-10-09T00:57:51.491Z,72.59
2022-10-09T01:00:23.273Z,72.50
2022-10-09T01:02:54.884Z,72.23
2022-10-09T01:05:34.437Z,72.24
2022-10-09T01:08:11.874Z,72.47
2022-10-09T01:10:51.699Z,72.51
2022-10-09T01:13:29.533Z,72.47
2022-10-09T01:16:05.060Z,72.36
2022-10-09T01:18:45.138Z,71.95
2022-10-09T01:21:21.269Z,72.55
2022-10-09T01:24:09.045Z,72.38
2022-10-09T01:27:01.737Z,72.51
2022-10-09T01:29:37.801Z,73.10
2022-10-09T01:32:11.350Z,72.49
2022-10-09T01:37:44.161Z,72.37
2022-10-09T01:40:18.238Z,72.58
2022-10-09T01:42:49.807Z,72.44
2022-10-09T01:45:21.625Z,72.41
2022-10-09T01:47:53.128Z,72.70
2022-10-09T01:50:28.535Z,72.47
2022-10-09T01:53:03.071Z,72.21
2022-10-09T01:55:41.424Z,72.09
2022-10-09T01:58:20.750Z,71.96
2022-10-09T02:00:58.407Z,71.54
2022-10-09T02:03:32.898Z,71.64
2022-10-09T02:06:05.169Z,71.69
2022-10-09T02:08:38.902Z,71.58
2022-10-09T02:11:11.656Z,71.79
2022-10-09T02:13:43.811Z,71.83
2022-10-09T02:16:20.269Z,71.72
2022-10-09T02:18:59.606Z,71.45
2022-10-09T02:21:40.151Z,71.95
2022-10-09T02:24:15.564Z,72.20
2022-10-09T02:26:46.911Z,71.84
2022-10-09T02:29:18.910Z,72.00
2022-10-09T02:31:50.360Z,71.56
2022-10-09T02:34:22.668Z,71.74
2022-10-09T02:36:53.949Z,72.06
2022-10-09T02:39:25.342Z,71.85
2022-10-09T02:41:56.711Z,72.14
2022-10-09T02:44:28.460Z,71.81
2022-10-09T02:47:00.210Z,72.07
2022-10-09T02:49:31.397Z,72.12
2022-10-09T02:52:02.763Z,72.22
2022-10-09T02:54:34.089Z,72.18
2022-10-09T02:57:05.432Z,71.94
2022-10-09T02:59:37.126Z,71.86
2022-10-09T03:02:08.315Z,71.63
2022-10-09T03:04:39.702Z,71.52
2022-10-09T03:07:11.589Z,71.54
2022-10-09T03:09:43.168Z,71.58
2022-10-09T03:12:16.361Z,71.58
2022-10-09T03:14:47.557Z,71.68
2022-10-09T03:17:18.809Z,71.93
2022-10-09T03:19:52.950Z,71.59
2022-10-09T03:22:30.259Z,71.94
2022-10-09T03:25:01.707Z,72.18
2022-10-09T03:27:33.441Z,72.69
2022-10-09T03:30:05.194Z,72.73
2022-10-09T03:32:36.582Z,72.68
2022-10-09T03:35:10.858Z,72.82
2022-10-09T03:37:42.099Z,72.61
2022-10-09T03:40:15.148Z,72.84
2022-10-09T03:42:46.649Z,73.19
2022-10-09T03:45:18.583Z,72.78
2022-10-09T03:47:49.860Z,72.78
2022-10-09T03:50:21.079Z,72.66
2022-10-09T03:52:52.704Z,72.84
2022-10-09T03:55:24.297Z,73.09
2022-10-09T03:57:55.517Z,73.45
2022-10-09T04:00:27.148Z,73.26
2022-10-09T04:02:58.554Z,73.61
2022-10-09T04:05:30.660Z,73.01
2022-10-09T04:08:02.195Z,73.14
2022-10-09T04:10:33.482Z,72.73
2022-10-09T04:13:05.043Z,72.91
2022-10-09T04:15:37.035Z,72.49
2022-10-09T04:18:09.193Z,72.65
2022-10-09T04:20:40.399Z,72.74
2022-10-09T04:23:11.602Z,72.75
2022-10-09T04:25:43.180Z,72.42
2022-10-09T04:28:14.486Z,72.01
2022-10-09T04:30:45.948Z,72.37
2022-10-09T04:33:17.268Z,72.52
2022-10-09T04:35:51.728Z,72.73
2022-10-09T04:38:23.939Z,73.02
2022-10-09T04:41:02.472Z,73.20
2022-10-09T04:43:34.639Z,73.48
2022-10-09T04:46:09.861Z,72.81
2022-10-09T04:48:45.786Z,72.96
2022-10-09T04:51:18.296Z,73.14
2022-10-09T04:53:50.222Z,73.13
2022-10-09T04:56:24.278Z,73.40
2022-10-09T04:58:56.067Z,73.16
2022-10-09T05:01:33.110Z,73.26
2022-10-09T05:04:08.765Z,72.79
2022-10-09T05:06:40.120Z,72.36
2022-10-09T05:09:11.335Z,72.26
2022-10-09T05:11:43.054Z,72.31
2022-10-09T05:14:14.740Z,72.59
2022-10-09T05:17:08.769Z,72.17
2022-10-09T05:19:37.391Z,72.14
2022-10-09T05:22:08.738Z,71.98
2022-10-09T05:24:40.073Z,72.33
2022-10-09T05:27:11.302Z,71.79
2022-10-09T05:29:42.755Z,71.83
2022-10-09T05:32:15.015Z,72.09
2022-10-09T05:34:46.465Z,72.38
2022-10-09T05:37:17.724Z,72.50
2022-10-09T05:39:49.398Z,72.29
2022-10-09T05:42:20.687Z,72.36
2022-10-09T05:44:52.118Z,72.53
2022-10-09T05:47:23.264Z,72.87
2022-10-09T05:49:54.597Z,73.04
2022-10-09T05:52:25.926Z,72.94
2022-10-09T05:54:57.523Z,72.63
2022-10-09T05:57:29.598Z,72.37
2022-10-09T06:00:01.181Z,72.32
2022-10-09T06:02:32.479Z,72.61
2022-10-09T06:05:04.045Z,72.97
2022-10-09T06:07:35.459Z,72.97
2022-10-09T06:10:07.444Z,72.73
2022-10-09T06:12:38.644Z,72.68
2022-10-09T06:15:11.940Z,73.04
2022-10-09T06:17:43.143Z,73.33
2022-10-09T06:20:15.740Z,73.55
2022-10-09T06:22:47.214Z,73.48
2022-10-09T06:25:18.917Z,73.13
2022-10-09T06:27:50.298Z,72.71
2022-10-09T06:30:21.605Z,72.29
2022-10-09T06:32:52.880Z,72.59
2022-10-09T06:35:24.491Z,72.88
2022-10-09T06:37:55.693Z,72.49
2022-10-09T06:40:27.077Z,72.39
2022-10-09T06:42:58.281Z,72.72
2022-10-09T06:45:29.893Z,72.65
2022-10-09T06:48:01.093Z,72.85
2022-10-09T06:50:32.416Z,73.10
2022-10-09T06:53:03.868Z,73.31
2022-10-09T06:55:35.282Z,72.99
2022-10-09T06:58:06.619Z,72.09
2022-10-09T07:00:38.210Z,72.03
2022-10-09T07:03:09.660Z,72.01
2022-10-09T07:05:41.341Z,71.76
2022-10-09T07:08:12.615Z,71.91
2022-10-09T07:10:43.724Z,71.67
2022-10-09T07:13:15.190Z,71.80
2022-10-09T07:15:49.255Z,71.45
2022-10-09T07:18:20.466Z,71.57
2022-10-09T07:20:51.731Z,71.44
2022-10-09T07:23:23.961Z,71.79
2022-10-09T07:25:55.435Z,72.33
2022-10-09T07:28:28.832Z,72.40
2022-10-09T07:31:03.716Z,72.30
2022-10-09T07:33:35.131Z,72.20
2022-10-09T07:36:08.052Z,71.75
2022-10-09T07:38:39.441Z,71.97
2022-10-09T07:41:12.835Z,72.01
2022-10-09T07:43:44.744Z,72.21
2022-10-09T07:46:18.434Z,71.69
2022-10-09T07:48:51.074Z,71.40
2022-10-09T07:51:24.245Z,71.01
2022-10-09T07:53:57.557Z,70.76
2022-10-09T07:56:31.309Z,70.87
2022-10-09T07:59:04.800Z,70.85
2022-10-09T08:01:37.326Z,71.29
2022-10-09T08:04:09.655Z,71.19
2022-10-09T08:06:41.148Z,70.69
2022-10-09T08:09:12.447Z,71.23
2022-10-09T08:11:44.756Z,71.34
2022-10-09T08:14:19.150Z,71.31
2022-10-09T08:16:51.083Z,71.52
2022-10-09T08:19:22.341Z,71.49
2022-10-09T08:21:54.180Z,70.90
2022-10-09T08:24:25.764Z,70.56
2022-10-09T08:26:57.014Z,70.62
2022-10-09T08:29:28.240Z,70.82
2022-10-09T08:31:59.626Z,70.78
2022-10-09T08:34:31.418Z,70.94
2022-10-09T08:37:02.628Z,70.80
2022-10-09T08:39:33.790Z,71.02
2022-10-09T08:42:06.410Z,70.94
2022-10-09T08:44:42.542Z,71.23
2022-10-09T08:47:21.972Z,71.07
2022-10-09T08:49:57.923Z,71.19
2022-10-09T08:52:36.986Z,70.71
2022-10-09T08:55:16.106Z,70.10
2022-10-09T08:57:51.041Z,70.57
2022-10-09T09:00:24.481Z,70.20
2022-10-09T09:03:28.181Z,69.38
2022-10-09T09:06:04.914Z,69.16
2022-10-09T09:08:46.602Z,69.23
2022-10-09T09:11:29.286Z,68.89
2022-10-09T09:14:13.125Z,69.02
2022-10-09T09:16:51.642Z,68.92
2022-10-09T09:19:44.442Z,69.11
2022-10-09T09:22:17.412Z,68.47
2022-10-09T09:24:52.895Z,67.69
2022-10-09T09:27:29.127Z,67.84
2022-10-09T09:30:04.601Z,68.15
2022-10-09T09:32:36.900Z,67.68
2022-10-09T09:35:20.744Z,67.88
2022-10-09T09:37:52.263Z,68.02
2022-10-09T09:40:36.057Z,68.20
2022-10-09T09:43:18.237Z,68.09
2022-10-09T09:45:50.780Z,68.18
2022-10-09T09:48:29.372Z,68.16
2022-10-09T09:51:23.623Z,68.34
2022-10-09T09:53:55.489Z,68.41
2022-10-09T09:57:06.993Z,67.79
2022-10-09T09:59:37.602Z,67.54
2022-10-09T10:02:16.985Z,67.83
2022-10-09T10:04:58.959Z,67.95
2022-10-09T10:07:35.510Z,67.67
2022-10-09T10:10:15.628Z,67.30
2022-10-09T10:12:49.479Z,67.26
2022-10-09T10:15:25.086Z,67.48
2022-10-09T10:18:03.679Z,66.72
2022-10-09T10:20:44.165Z,67.27
2022-10-09T10:23:26.634Z,67.30
2022-10-09T10:26:02.201Z,67.09
2022-10-09T10:28:37.646Z,66.63
2022-10-09T10:31:17.055Z,66.81
2022-10-09T10:33:52.889Z,66.76
2022-10-09T10:36:25.492Z,66.70
2022-10-09T10:39:03.935Z,66.27
2022-10-09T10:41:39.233Z,66.48
2022-10-09T10:44:20.549Z,66.59
2022-10-09T10:46:56.482Z,66.83
2022-10-09T10:49:33.515Z,66.70
2022-10-09T10:52:20.028Z,66.52
2022-10-09T10:54:58.574Z,66.29
2022-10-09T10:57:47.303Z,65.85
2022-10-09T11:00:19.276Z,66.05
2022-10-09T11:03:08.042Z,65.65
2022-10-09T11:05:51.961Z,65.45
2022-10-09T11:08:45.982Z,65.28
2022-10-09T11:11:24.138Z,64.98
2022-10-09T11:14:06.880Z,64.97
2022-10-09T11:16:50.506Z,64.90
2022-10-09T11:19:44.465Z,65.09
2022-10-09T11:22:29.750Z,63.96
2022-10-09T11:25:11.356Z,64.62
2022-10-09T11:27:49.306Z,64.42
2022-10-09T11:30:22.018Z,64.72
2022-10-09T11:33:01.478Z,64.79
2022-10-09T11:35:38.334Z,65.14
2022-10-09T11:38:24.420Z,64.82
2022-10-09T11:40:56.788Z,64.77
2022-10-09T11:43:48.447Z,64.21
2022-10-09T11:46:29.698Z,64.29
2022-10-09T11:49:12.040Z,63.72
2022-10-09T11:51:49.685Z,63.65
2022-10-09T11:54:24.347Z,63.97
2022-10-09T11:56:59.192Z,63.81
2022-10-09T11:59:34.214Z,63.91
2022-10-09T12:02:26.659Z,64.19
2022-10-09T12:04:58.359Z,63.89
2022-10-09T12:07:36.378Z,64.12
2022-10-09T12:10:10.800Z,64.18
2022-10-09T12:12:43.644Z,64.28
2022-10-09T12:15:29.442Z,64.19
2022-10-09T12:18:01.105Z,63.37
2022-10-09T12:20:32.655Z,63.11
2022-10-09T12:25:57.440Z,62.83
2022-10-09T12:28:39.959Z,62.86
2022-10-09T12:31:20.101Z,62.75
2022-10-09T12:33:56.393Z,62.84
2022-10-09T12:36:29.476Z,62.76
2022-10-09T12:39:13.456Z,62.24
2022-10-09T12:41:47.467Z,62.79
2022-10-09T12:44:30.388Z,62.64
2022-10-09T12:47:06.490Z,62.62
2022-10-09T12:49:38.832Z,62.72
2022-10-09T12:52:17.358Z,62.95
2022-10-09T12:54:48.652Z,62.78
2022-10-09T12:57:24.036Z,63.13
2022-10-09T12:59:59.417Z,62.43
2022-10-09T13:02:32.004Z,61.86
2022-10-09T13:05:03.828Z,61.19
2022-10-09T13:07:35.130Z,61.52
2022-10-09T13:10:17.260Z,61.81
2022-10-09T13:12:55.739Z,61.35
2022-10-09T13:15:37.177Z,61.50
2022-10-09T13:18:24.029Z,61.32
2022-10-09T13:21:04.276Z,61.14
2022-10-09T13:23:37.126Z,61.25
2022-10-09T13:26:09.264Z,61.40
2022-10-09T13:28:41.623Z,61.10
2022-10-09T13:31:13.587Z,60.79
2022-10-09T13:33:44.871Z,61.18
2022-10-09T13:36:16.520Z,61.06
2022-10-09T13:38:48.904Z,61.29
2022-10-09T13:41:24.505Z,61.81
2022-10-09T13:43:56.482Z,62.19
2022-10-09T13:46:27.992Z,62.20
2022-10-09T13:48:59.258Z,61.90
2022-10-09T13:51:32.246Z,61.64
2022-10-09T13:54:03.589Z,61.61
2022-10-09T13:56:35.197Z,61.29
2022-10-09T13:59:06.992Z,61.64
2022-10-09T14:01:38.312Z,61.09
2022-10-09T14:04:09.591Z,61.27
2022-10-09T14:06:41.176Z,60.86
2022-10-09T14:09:12.739Z,60.57
2022-10-09T14:11:44.952Z,60.22
2022-10-09T14:14:16.451Z,60.25
2022-10-09T14:16:47.913Z,60.45
2022-10-09T14:19:19.208Z,60.23
2022-10-09T14:21:50.423Z,60.52
2022-10-09T14:24:21.957Z,60.14
2022-10-09T14:26:53.485Z,60.07
2022-10-09T14:29:24.685Z,59.77
2022-10-09T14:31:55.966Z,59.77
2022-10-09T14:34:27.164Z,60.09
2022-10-09T14:36:58.394Z,60.09
2022-10-09T14:39:29.775Z,60.48
2022-10-09T14:42:00.941Z,60.12
2022-10-09T14:44:32.039Z,60.25
2022-10-09T14:47:03.350Z,60.26
2022-10-09T14:49:34.678Z,60.15
2022-10-09T14:52:05.815Z,60.43
2022-10-09T14:54:37.181Z,60.39
2022-10-09T14:57:08.299Z,60.61
2022-10-09T14:59:39.670Z,61.22
2022-10-09T15:02:17.900Z,61.27
2022-10-09T15:04:49.208Z,60.79
2022-10-09T15:07:20.610Z,60.84
2022-10-09T15:09:51.939Z,61.49
2022-10-09T15:12:23.239Z,61.62
2022-10-09T15:14:54.481Z,61.97
2022-10-09T15:17:25.892Z,61.70
2022-10-09T15:19:57.274Z,61.42
2022-10-09T15:22:28.742Z,61.00
2022-10-09T15:25:00.007Z,61.77
2022-10-09T15:27:31.163Z,61.84
2022-10-09T15:30:02.495Z,61.94
2022-10-09T15:32:33.667Z,62.30
2022-10-09T15:35:05.024Z,62.21
2022-10-09T15:37:36.340Z,62.24
2022-10-09T15:40:08.425Z,62.50
2022-10-09T15:42:41.751Z,62.37
2022-10-09T15:45:13.708Z,62.34
2022-10-09T15:47:51.963Z,62.64
2022-10-09T15:50:23.255Z,62.93
2022-10-09T15:52:56.692Z,62.82
2022-10-09T15:55:27.855Z,62.67
2022-10-09T15:57:59.353Z,63.00
2022-10-09T16:00:30.662Z,63.01
2022-10-09T16:03:01.914Z,63.08
2022-10-09T16:05:37.399Z,63.01
2022-10-09T16:08:09.061Z,62.57
2022-10-09T16:10:48.663Z,62.49
2022-10-09T16:13:20.860Z,62.83
2022-10-09T16:15:52.272Z,62.90
2022-10-09T16:18:25.239Z,63.16
2022-10-09T16:20:56.503Z,63.17
2022-10-09T16:23:27.737Z,63.21
2022-10-09T16:26:03.491Z,63.58
2022-10-09T16:28:35.799Z,64.04
2022-10-09T16:31:07.372Z,64.29
2022-10-09T16:33:38.790Z,64.01
2022-10-09T16:36:42.777Z,64.15
2022-10-09T16:39:14.238Z,63.96
2022-10-09T16:41:45.491Z,63.70
2022-10-09T16:44:17.357Z,63.50
2022-10-09T16:46:48.566Z,63.21
2022-10-09T16:49:22.863Z,63.32
2022-10-09T16:51:56.368Z,63.30
2022-10-09T16:54:28.104Z,63.48
2022-10-09T16:56:59.406Z,63.66
2022-10-09T16:59:33.693Z,64.10
2022-10-09T17:02:05.012Z,64.19
2022-10-09T17:04:39.648Z,64.21
2022-10-09T17:07:09.802Z,64.38
2022-10-09T17:09:48.401Z,64.55
2022-10-09T17:12:20.524Z,64.43
2022-10-09T17:14:56.108Z,64.31
2022-10-09T17:17:27.848Z,64.05
2022-10-09T17:19:59.300Z,63.79
2022-10-09T17:22:30.627Z,63.75
2022-10-09T17:25:02.696Z,64.18
2022-10-09T17:27:34.421Z,64.28
2022-10-09T17:30:07.235Z,64.32
2022-10-09T17:32:39.004Z,64.52
2022-10-09T17:35:12.267Z,64.51
2022-10-09T17:37:45.386Z,64.97
2022-10-09T17:40:17.226Z,65.32
2022-10-09T17:42:49.577Z,64.82
2022-10-09T17:45:21.133Z,64.90
2022-10-09T17:47:54.369Z,64.87
2022-10-09T17:50:27.604Z,65.55
2022-10-09T17:52:59.377Z,66.28
2022-10-09T17:55:31.806Z,66.62
2022-10-09T17:58:03.209Z,66.50
2022-10-09T18:00:34.695Z,66.64
2022-10-09T18:03:06.094Z,66.52
2022-10-09T18:05:43.786Z,66.83
2022-10-09T18:08:16.165Z,66.79
2022-10-09T18:10:47.898Z,66.84
2022-10-09T18:13:19.868Z,66.39
2022-10-09T18:15:51.912Z,65.90
2022-10-09T18:18:24.114Z,65.73
2022-10-09T18:20:56.247Z,65.80
2022-10-09T18:23:27.581Z,66.52
2022-10-09T18:25:59.595Z,66.64
2022-10-09T18:28:32.111Z,66.90
2022-10-09T18:31:05.311Z,66.89
2022-10-09T18:33:38.380Z,66.53
2022-10-09T18:36:14.813Z,66.19
2022-10-09T18:38:47.018Z,66.15
2022-10-09T18:41:19.606Z,66.03
2022-10-09T18:43:53.916Z,66.32
2022-10-09T18:46:29.187Z,66.34
2022-10-09T18:49:02.116Z,66.48
2022-10-09T18:51:34.154Z,66.37
2022-10-09T18:54:08.535Z,66.04
2022-10-09T18:56:41.468Z,65.87
2022-10-09T18:59:17.030Z,65.88
2022-10-09T19:01:49.349Z,66.36
2022-10-09T19:04:20.912Z,66.55
2022-10-09T19:06:52.798Z,67.02
2022-10-09T19:09:24.242Z,66.71
2022-10-09T19:11:56.364Z,66.15
2022-10-09T19:14:27.579Z,66.23
2022-10-09T19:16:58.807Z,66.42
2022-10-09T19:19:30.545Z,66.53
2022-10-09T19:22:01.764Z,67.08
2022-10-09T19:24:34.453Z,67.97
2022-10-09T19:27:05.897Z,68.28
2022-10-09T19:29:37.800Z,68.43
2022-10-09T19:32:09.526Z,68.04
2022-10-09T19:34:41.158Z,67.37
2022-10-09T19:37:13.135Z,67.35
2022-10-09T19:39:49.116Z,67.44
2022-10-09T19:42:20.906Z,67.87
2022-10-09T19:44:52.278Z,68.07
2022-10-09T19:47:24.410Z,67.76
2022-10-09T19:49:55.699Z,67.42
2022-10-09T19:52:27.123Z,66.84
2022-10-09T19:54:58.490Z,66.98
2022-10-09T19:57:29.758Z,66.97
2022-10-09T20:00:01.051Z,67.10
2022-10-09T20:02:35.489Z,67.21
2022-10-09T20:05:07.779Z,67.31
2022-10-09T20:07:39.030Z,67.23
2022-10-09T20:10:11.900Z,66.95
2022-10-09T20:12:45.933Z,66.60
2022-10-09T20:15:17.702Z,66.38
2022-10-09T20:17:49.439Z,66.28
2022-10-09T20:20:20.866Z,66.01
2022-10-09T20:22:52.530Z,66.54
2022-10-09T20:25:24.673Z,66.89
2022-10-09T20:27:55.992Z,67.34
2022-10-09T20:30:27.361Z,67.28
2022-10-09T20:32:59.629Z,67.04
2022-10-09T20:35:31.482Z,66.87
2022-10-09T20:38:04.065Z,66.49
2022-10-09T20:40:37.400Z,66.26
2022-10-09T20:43:08.838Z,66.23
2022-10-09T20:45:44.644Z,66.89
2022-10-09T20:48:16.281Z,67.38
2022-10-09T20:50:47.867Z,67.43
2022-10-09T20:53:19.303Z,67.38
2022-10-09T20:55:50.505Z,67.60
2022-10-09T20:58:21.766Z,67.44
2022-10-09T21:00:53.124Z,66.63
2022-10-09T21:03:24.704Z,66.52
2022-10-09T21:05:56.066Z,66.87
2022-10-09T21:08:27.377Z,67.10
2022-10-09T21:10:58.681Z,66.91
2022-10-09T21:13:29.882Z,66.31
2022-10-09T21:16:01.033Z,66.94
2022-10-09T21:18:32.454Z,67.59
2022-10-09T21:21:07.283Z,67.58
2022-10-09T21:23:37.113Z,67.84
2022-10-09T21:26:12.408Z,67.52
2022-10-09T21:28:44.079Z,68.22
2022-10-09T21:31:17.299Z,67.84
2022-10-09T21:33:48.761Z,67.27
2022-10-09T21:36:29.822Z,66.43
2022-10-09T21:39:01.167Z,66.55
2022-10-09T21:41:33.225Z,66.35
2022-10-09T21:44:05.078Z,67.00
2022-10-09T21:46:37.884Z,67.48
2022-10-09T21:49:09.638Z,68.04
2022-10-09T21:51:40.868Z,67.77
2022-10-09T21:54:12.052Z,67.47
2022-10-09T21:56:43.492Z,67.05
2022-10-09T21:59:15.280Z,66.77
2022-10-09T22:01:46.680Z,66.87
2022-10-09T22:04:17.999Z,67.12
2022-10-09T22:06:49.142Z,67.43
2022-10-09T22:09:20.517Z,68.33
2022-10-09T22:11:51.760Z,68.77
2022-10-09T22:14:23.105Z,68.73
2022-10-09T22:16:54.601Z,67.79
2022-10-09T22:19:26.526Z,67.54
2022-10-09T22:21:57.797Z,67.57
2022-10-09T22:24:29.398Z,66.96
2022-10-09T22:27:00.812Z,66.95
2022-10-09T22:29:32.089Z,67.87
2022-10-09T22:32:03.282Z,68.59
2022-10-09T22:34:34.544Z,69.70
2022-10-09T22:37:05.861Z,70.08
2022-10-09T22:39:37.000Z,69.73
2022-10-09T22:42:08.266Z,69.87
2022-10-09T22:44:39.550Z,69.49
2022-10-09T22:47:10.698Z,69.11
2022-10-09T22:49:41.937Z,69.08
2022-10-09T22:52:13.233Z,68.53
2022-10-09T22:54:45.014Z,68.38
2022-10-09T22:57:16.227Z,68.37
2022-10-09T22:59:47.637Z,69.13
2022-10-09T23:02:19.138Z,69.25
2022-10-09T23:04:50.473Z,69.02
2022-10-09T23:07:21.710Z,68.46
2022-10-09T23:09:52.956Z,68.41
2022-10-09T23:12:24.221Z,68.18
2022-10-09T23:14:56.190Z,68.50
2022-10-09T23:17:27.631Z,68.79
2022-10-09T23:19:58.759Z,68.23
2022-10-09T23:22:29.917Z,68.23
2022-10-09T23:25:01.225Z,68.49
2022-10-09T23:27:32.599Z,68.33
2022-10-09T23:30:03.981Z,68.27
2022-10-09T23:32:35.315Z,68.20
2022-10-09T23:35:07.488Z,67.91
2022-10-09T23:37:38.639Z,68.28
2022-10-09T23:40:11.133Z,68.17
2022-10-09T23:42:42.395Z,68.45
2022-10-09T23:45:14.165Z,68.33
2022-10-09T23:47:45.437Z,68.26
2022-10-09T23:50:16.672Z,68.32
2022-10-09T23:52:48.139Z,68.19
2022-10-09T23:55:19.563Z,68.61
2022-10-09T23:57:51.761Z,68.61
